createdAt,value
2023-04-27T00:01:16.492Z,100955.72
2023-04-27T00:06:22.221Z,100964.25
2023-04-27T00:11:27.903Z,100958.66
2023-04-27T00:16:33.499Z,100964.91
2023-04-27T00:21:39.048Z,100968.91
2023-04-27T00:26:44.659Z,100950.91
2023-04-27T00:31:50.531Z,100945.66
2023-04-27T00:36:56.113Z,100968.00
2023-04-27T00:42:01.922Z,100973.63
2023-04-27T00:47:07.895Z,100974.00
2023-04-27T00:52:13.672Z,100968.47
2023-04-27T00:57:21.294Z,100971.66
2023-04-27T01:02:27.595Z,100960.03
2023-04-27T01:07:33.316Z,100973.44
2023-04-27T01:12:38.599Z,100969.31
2023-04-27T01:17:44.192Z,100970.44
2023-04-27T01:22:49.647Z,100950.81
2023-04-27T01:27:55.621Z,100963.91
2023-04-27T01:33:01.093Z,100964.22
2023-04-27T01:38:06.722Z,100956.69
2023-04-27T01:43:12.197Z,100974.69
2023-04-27T01:48:17.718Z,100968.78
2023-04-27T01:53:23.135Z,100958.28
2023-04-27T01:58:28.887Z,100969.28
2023-04-27T02:03:34.709Z,100978.50
2023-04-27T02:08:40.447Z,100965.22
2023-04-27T02:13:47.386Z,100960.44
2023-04-27T02:18:54.837Z,100968.84
2023-04-27T02:24:00.692Z,100950.66
2023-04-27T02:29:06.408Z,100984.34
2023-04-27T02:34:12.589Z,100951.00
2023-04-27T02:39:18.023Z,100991.00
2023-04-27T02:44:23.722Z,100999.50
2023-04-27T02:49:29.581Z,100993.63
2023-04-27T02:54:35.264Z,100996.41
2023-04-27T02:59:40.719Z,100998.47
2023-04-27T03:04:46.304Z,101008.91
2023-04-27T03:09:52.036Z,101012.63
2023-04-27T03:14:57.628Z,101005.31
2023-04-27T03:20:05.359Z,101029.91
2023-04-27T03:25:11.325Z,101023.41
2023-04-27T03:30:17.649Z,101013.38
2023-04-27T03:35:23.428Z,100998.16
2023-04-27T03:40:29.350Z,101014.84
2023-04-27T03:45:37.076Z,101013.06
2023-04-27T03:50:43.593Z,101018.75
2023-04-27T03:55:49.175Z,101023.34
2023-04-27T04:00:55.370Z,101023.03
2023-04-27T04:06:01.318Z,101014.22
2023-04-27T04:11:06.815Z,101016.50
2023-04-27T04:16:12.688Z,101022.66
2023-04-27T04:21:18.149Z,101015.72
2023-04-27T04:26:24.285Z,101010.69
2023-04-27T04:31:28.729Z,101000.00
2023-04-27T04:36:35.168Z,101007.78
2023-04-27T04:41:40.480Z,100998.28
2023-04-27T04:46:47.758Z,101007.94
2023-04-27T04:51:53.203Z,100990.22
2023-04-27T04:57:00.211Z,101004.44
2023-04-27T05:02:04.511Z,101012.13
2023-04-27T05:07:15.045Z,101008.31
2023-04-27T05:12:20.436Z,101008.50
2023-04-27T05:17:24.724Z,101008.03
2023-04-27T05:22:28.954Z,100981.22
2023-04-27T05:27:33.245Z,101000.50
2023-04-27T05:32:38.193Z,101003.97
2023-04-27T05:37:42.364Z,101012.19
2023-04-27T05:42:50.311Z,101010.06
2023-04-27T05:47:54.720Z,101006.09
2023-04-27T05:52:58.874Z,100997.44
2023-04-27T05:58:08.436Z,101007.06
2023-04-27T06:03:13.794Z,101004.88
2023-04-27T06:08:18.010Z,101009.00
2023-04-27T06:13:22.882Z,101016.66
2023-04-27T06:18:27.177Z,100986.03
2023-04-27T06:23:31.416Z,101000.00
2023-04-27T06:28:35.541Z,101007.09
2023-04-27T06:33:39.672Z,101004.59
2023-04-27T06:38:48.118Z,101015.34
2023-04-27T06:43:52.616Z,101006.81
2023-04-27T06:48:57.433Z,101017.00
2023-04-27T06:54:01.725Z,100994.78
2023-04-27T06:59:05.914Z,101015.94
2023-04-27T07:04:10.287Z,100996.56
2023-04-27T07:09:26.582Z,100999.28
2023-04-27T07:14:31.884Z,101005.44
2023-04-27T07:19:38.053Z,101004.63
2023-04-27T07:24:42.456Z,100989.06
2023-04-27T07:29:46.624Z,100997.66
2023-04-27T07:34:53.997Z,100985.31
2023-04-27T07:40:00.336Z,100979.16
2023-04-27T07:45:04.627Z,100986.53
2023-04-27T07:50:09.644Z,100993.34
2023-04-27T07:55:13.943Z,100979.91
2023-04-27T08:00:22.718Z,100985.28
2023-04-27T08:05:27.339Z,100938.09
2023-04-27T08:10:31.996Z,100979.28
2023-04-27T08:15:37.545Z,100980.00
2023-04-27T08:20:41.876Z,100971.69
2023-04-27T08:25:46.057Z,100959.94
2023-04-27T08:30:50.134Z,100979.94
2023-04-27T08:35:57.035Z,100959.66
2023-04-27T08:41:14.157Z,100957.72
2023-04-27T08:46:27.734Z,100955.94
2023-04-27T08:51:33.529Z,100953.56
2023-04-27T08:56:37.905Z,100939.63
2023-04-27T09:01:49.471Z,100948.06
2023-04-27T09:06:54.025Z,100939.44
2023-04-27T09:11:58.386Z,100945.56
2023-04-27T09:17:02.608Z,100940.50
2023-04-27T09:22:16.165Z,100939.06
2023-04-27T09:27:22.267Z,100932.13
2023-04-27T09:32:26.542Z,100925.91
2023-04-27T09:37:31.077Z,100922.13
2023-04-27T09:42:35.297Z,100926.72
2023-04-27T09:47:40.483Z,100930.47
2023-04-27T09:52:46.376Z,100938.50
2023-04-27T09:58:37.115Z,100926.25
2023-04-27T10:03:59.413Z,100919.78
2023-04-27T10:09:07.362Z,100918.91
2023-04-27T10:14:18.991Z,100935.28
2023-04-27T10:19:25.435Z,100927.88
2023-04-27T10:24:39.997Z,100921.97
2023-04-27T10:29:45.656Z,100921.41
2023-04-27T10:34:51.729Z,100915.72
2023-04-27T10:40:06.787Z,100901.56
2023-04-27T10:45:13.271Z,100887.56
2023-04-27T10:50:19.296Z,100912.53
2023-04-27T10:55:24.188Z,100887.75
2023-04-27T11:00:33.344Z,100888.38
2023-04-27T11:05:37.625Z,100875.13
2023-04-27T11:10:50.647Z,100891.47
2023-04-27T11:16:00.329Z,100884.38
2023-04-27T11:21:34.894Z,100888.13
2023-04-27T11:26:39.038Z,100878.53
2023-04-27T11:31:52.321Z,100875.06
2023-04-27T11:37:14.688Z,100864.81
2023-04-27T11:42:30.327Z,100877.19
2023-04-27T11:47:39.808Z,100881.47
2023-04-27T11:52:50.159Z,100878.69
2023-04-27T11:57:59.768Z,100871.63
2023-04-27T12:03:04.507Z,100868.84
2023-04-27T12:08:08.848Z,100871.53
2023-04-27T12:13:13.628Z,100871.06
2023-04-27T12:18:17.759Z,100854.22
2023-04-27T12:23:21.953Z,100861.88
2023-04-27T12:28:26.075Z,100858.59
2023-04-27T12:33:30.614Z,100856.00
2023-04-27T12:38:34.705Z,100858.56
2023-04-27T12:43:39.372Z,100860.28
2023-04-27T12:48:44.785Z,100841.50
2023-04-27T12:53:50.042Z,100849.56
2023-04-27T12:58:56.063Z,100857.97
2023-04-27T13:04:03.560Z,100858.28
2023-04-27T13:09:09.355Z,100846.66
2023-04-27T13:14:15.040Z,100857.66
2023-04-27T13:19:20.606Z,100857.13
2023-04-27T13:24:26.586Z,100852.63
2023-04-27T13:29:32.212Z,100814.59
2023-04-27T13:34:37.690Z,100855.03
2023-04-27T13:39:43.361Z,100858.28
2023-04-27T13:44:48.975Z,100858.81
2023-04-27T13:49:54.520Z,100852.16
2023-04-27T13:55:00.118Z,100853.75
2023-04-27T14:00:11.827Z,100860.16
2023-04-27T14:05:17.539Z,100852.94
2023-04-27T14:10:25.143Z,100863.16
2023-04-27T14:15:30.785Z,100852.97
2023-04-27T14:20:37.377Z,100860.75
2023-04-27T14:25:42.900Z,100851.34
2023-04-27T14:30:48.294Z,100842.75
2023-04-27T14:35:54.040Z,100845.44
2023-04-27T14:40:59.896Z,100843.81
2023-04-27T14:46:19.825Z,100846.19
2023-04-27T14:51:29.478Z,100853.91
2023-04-27T14:56:35.219Z,100850.69
2023-04-27T15:01:40.900Z,100849.84
2023-04-27T15:06:46.528Z,100847.34
2023-04-27T15:11:52.065Z,100841.63
2023-04-27T15:16:57.640Z,100845.47
2023-04-27T15:22:03.335Z,100855.78
2023-04-27T15:27:10.067Z,100864.47
2023-04-27T15:32:16.512Z,100869.13
2023-04-27T15:37:21.604Z,100863.31
2023-04-27T15:42:27.178Z,100848.59
2023-04-27T15:47:32.826Z,100840.28
2023-04-27T15:52:38.215Z,100850.75
2023-04-27T15:57:43.620Z,100865.91
2023-04-27T16:02:49.840Z,100856.47
2023-04-27T16:07:55.456Z,100858.25
2023-04-27T16:13:01.054Z,100866.94
2023-04-27T16:18:06.918Z,100861.53
2023-04-27T16:23:12.280Z,100882.00
2023-04-27T16:28:18.624Z,100875.81
2023-04-27T16:33:24.477Z,100898.09
2023-04-27T16:38:31.595Z,100896.03
2023-04-27T16:43:37.112Z,100905.75
2023-04-27T16:48:42.567Z,100909.81
2023-04-27T16:53:48.137Z,100907.56
2023-04-27T16:58:53.613Z,100919.38
2023-04-27T17:04:01.794Z,100921.28
2023-04-27T17:09:08.763Z,100922.97
2023-04-27T17:14:14.760Z,100933.22
2023-04-27T17:19:19.926Z,100939.06
2023-04-27T17:24:25.360Z,100940.44
2023-04-27T17:29:30.986Z,100939.75
2023-04-27T17:34:36.881Z,100943.19
2023-04-27T17:39:42.472Z,100940.56
2023-04-27T17:44:47.867Z,100954.03
2023-04-27T17:49:53.345Z,100945.53
2023-04-27T17:54:58.464Z,100959.75
2023-04-27T18:00:04.170Z,100957.72
2023-04-27T18:05:17.460Z,100951.88
2023-04-27T18:10:23.011Z,100944.31
2023-04-27T18:15:28.530Z,100943.72
2023-04-27T18:20:34.043Z,100892.75
2023-04-27T18:25:39.314Z,100938.63
2023-04-27T18:30:44.620Z,100951.00
2023-04-27T18:35:51.253Z,100933.53
2023-04-27T18:40:56.867Z,100942.22
2023-04-27T18:46:02.304Z,100942.63
2023-04-27T18:51:07.643Z,100936.31
2023-04-27T18:56:15.131Z,100943.22
2023-04-27T19:01:23.294Z,100936.09
2023-04-27T19:06:28.817Z,100941.34
2023-04-27T19:11:34.098Z,100918.47
2023-04-27T19:16:39.501Z,100944.81
2023-04-27T19:21:45.844Z,100949.72
2023-04-27T19:26:51.319Z,100950.94
2023-04-27T19:31:57.210Z,100948.06
2023-04-27T19:37:02.870Z,100921.38
2023-04-27T19:42:08.626Z,100958.47
2023-04-27T19:47:14.008Z,100948.81
2023-04-27T19:52:19.618Z,100945.31
2023-04-27T19:57:24.582Z,100956.78
2023-04-27T20:02:30.153Z,100955.19
2023-04-27T20:07:35.663Z,100954.72
2023-04-27T20:12:55.364Z,100943.28
2023-04-27T20:18:04.009Z,100956.22
2023-04-27T20:23:09.478Z,100935.44
2023-04-27T20:28:14.846Z,100956.19
2023-04-27T20:33:20.272Z,100946.03
2023-04-27T20:38:25.654Z,100965.16
2023-04-27T20:43:31.147Z,100942.44
2023-04-27T20:48:36.844Z,100954.16
2023-04-27T20:53:42.381Z,100948.09
2023-04-27T20:58:48.085Z,100956.22
2023-04-27T21:03:53.777Z,100962.56
2023-04-27T21:09:00.341Z,100966.09
2023-04-27T21:14:05.804Z,100960.50
2023-04-27T21:19:17.737Z,100966.34
2023-04-27T21:24:23.330Z,100966.09
2023-04-27T21:29:29.078Z,100959.50
2023-04-27T21:34:34.429Z,100951.19
2023-04-27T21:39:39.772Z,100959.63
2023-04-27T21:44:45.021Z,100959.44
2023-04-27T21:49:52.267Z,100958.31
2023-04-27T21:54:58.064Z,100969.31
2023-04-27T22:00:10.708Z,100965.63
2023-04-27T22:05:25.474Z,100965.13
2023-04-27T22:10:30.926Z,100968.34
2023-04-27T22:15:36.478Z,100970.38
2023-04-27T22:20:43.039Z,100962.84
2023-04-27T22:25:48.435Z,100965.63
2023-04-27T22:30:54.251Z,100961.53
2023-04-27T22:36:00.441Z,100958.47
2023-04-27T22:41:06.333Z,100945.81
2023-04-27T22:46:11.593Z,100920.34
2023-04-27T22:51:17.603Z,100954.34
2023-04-27T22:56:23.197Z,100948.44
2023-04-27T23:01:28.690Z,100952.22
2023-04-27T23:06:34.189Z,100947.81
2023-04-27T23:11:40.764Z,100939.50
2023-04-27T23:16:51.186Z,100959.84
2023-04-27T23:21:56.611Z,100964.47
2023-04-27T23:27:01.973Z,100963.84
2023-04-27T23:32:08.273Z,100957.41
2023-04-27T23:37:13.937Z,100956.91
2023-04-27T23:42:19.401Z,100946.56
2023-04-27T23:47:24.619Z,100955.09
2023-04-27T23:52:30.003Z,100943.19
2023-04-27T23:57:35.402Z,100944.06
